Time,TemperatureF,DewpointF,PressureIn,WindDirection,WindDirectionDegrees,WindSpeedMPH,WindSpeedGustMPH,Humidity,HourlyPrecipIn,Conditions,Clouds,dailyrainin,SoftwareType,DateUTC
2013-04-09 00:00:00,76.3,72.1,29.68,SSW,202,3.4,3.4,87,0.00,,,0.00,VWS V14.01,2013-04-08 14:00:00,
2013-04-09 00:01:00,76.3,72.1,29.68,South,180,2.7,3.4,87,0.00,,,0.00,VWS V14.01,2013-04-08 14:01:00,
2013-04-09 00:02:00,76.3,72.1,29.68,South,180,2.7,2.7,87,0.00,,,0.00,VWS V14.01,2013-04-08 14:02:00,
2013-04-09 00:03:00,76.3,72.1,29.68,SE,135,2.7,2.7,87,0.00,,,0.00,VWS V14.01,2013-04-08 14:03:00,
2013-04-09 00:04:00,76.3,72.1,29.68,SE,135,3.1,3.1,87,0.00,,,0.00,VWS V14.01,2013-04-08 14:04:00,
2013-04-09 00:05:00,76.3,72.1,29.68,SE,135,3.1,3.1,87,0.00,,,0.00,VWS V14.01,2013-04-08 14:05:00,
2013-04-09 00:06:00,76.3,72.1,29.68,SSW,202,3.6,3.6,87,0.00,,,0.00,VWS V14.01,2013-04-08 14:06:00,
2013-04-09 00:07:00,76.3,72.1,29.68,SE,135,3.6,3.6,87,0.00,,,0.00,VWS V14.01,2013-04-08 14:07:00,
2013-04-09 00:08:00,76.3,72.1,29.68,SE,135,4.7,4.7,87,0.00,,,0.00,VWS V14.01,2013-04-08 14:08:00,
2013-04-09 00:09:00,76.3,72.1,29.68,SE,135,4.7,4.7,87,0.00,,,0.00,VWS V14.01,2013-04-08 14:09:00,
2013-04-09 00:10:00,76.3,72.1,29.68,SE,135,2.9,4.7,87,0.00,,,0.00,VWS V14.01,2013-04-08 14:10:00,
2013-04-09 00:11:00,76.3,72.1,29.68,SSE,158,1.6,2.9,87,0.00,,,0.00,VWS V14.01,2013-04-08 14:11:00,
2013-04-09 00:12:00,76.3,72.1,29.68,SE,135,2.5,2.5,87,0.00,,,0.00,VWS V14.01,2013-04-08 14:12:00,
2013-04-09 00:13:00,76.3,72.1,29.68,NE,45,2.0,2.5,87,0.00,,,0.00,VWS V14.01,2013-04-08 14:13:00,
2013-04-09 00:14:00,76.3,72.1,29.68,SE,135,5.8,5.8,87,0.00,,,0.00,VWS V14.01,2013-04-08 14:14:00,
2013-04-09 00:15:00,76.3,72.1,29.68,SE,135,3.6,3.6,87,0.00,,,0.00,VWS V14.01,2013-04-08 14:15:00,
2013-04-09 00:16:00,76.3,72.1,29.68,SE,135,3.6,3.6,87,0.00,,,0.00,VWS V14.01,2013-04-08 14:16:00,
2013-04-09 00:17:00,76.3,72.1,29.68,South,180,3.6,3.6,87,0.00,,,0.00,VWS V14.01,2013-04-08 14:17:00,
2013-04-09 00:18:00,76.3,72.1,29.68,South,180,5.6,5.6,87,0.00,,,0.00,VWS V14.01,2013-04-08 14:18:00,
2013-04-09 00:19:00,76.3,72.5,29.68,South,180,5.4,5.6,88,0.00,,,0.00,VWS V14.01,2013-04-08 14:19:00,
2013-04-09 00:20:00,76.3,72.5,29.68,SW,225,4.0,5.6,88,0.00,,,0.00,VWS V14.01,2013-04-08 14:20:00,
2013-04-09 00:21:00,76.3,72.5,29.68,West,270,3.8,4.0,88,0.00,,,0.00,VWS V14.01,2013-04-08 14:21:00,
2013-04-09 00:22:00,76.3,72.5,29.68,ESE,112,3.4,3.8,88,0.00,,,0.00,VWS V14.01,2013-04-08 14:22:00,
2013-04-09 00:23:00,76.3,72.5,29.68,SE,135,3.4,3.4,88,0.00,,,0.00,VWS V14.01,2013-04-08 14:23:00,
2013-04-09 00:24:00,76.3,72.5,29.68,SE,135,2.0,3.4,88,0.00,,,0.00,VWS V14.01,2013-04-08 14:24:00,
2013-04-09 00:25:00,76.1,72.3,29.68,SE,135,3.4,3.4,88,0.00,,,0.00,VWS V14.01,2013-04-08 14:25:00,
2013-04-09 00:27:00,76.1,72.3,29.68,SE,135,3.4,3.4,88,0.00,,,0.00,VWS V14.01,2013-04-08 14:27:00,
2013-04-09 00:28:00,76.1,72.3,29.68,SE,135,4.3,4.3,88,0.00,,,0.00,VWS V14.01,2013-04-08 14:28:00,
2013-04-09 00:29:00,76.1,72.3,29.68,South,180,2.0,2.0,88,0.00,,,0.00,VWS V14.01,2013-04-08 14:29:00,
2013-04-09 00:30:00,76.1,72.3,29.68,South,180,7.8,7.8,88,0.00,,,0.00,VWS V14.01,2013-04-08 14:30:00,
2013-04-09 00:31:00,76.1,72.3,29.68,SE,135,3.6,7.8,88,0.00,,,0.00,VWS V14.01,2013-04-08 14:31:00,
2013-04-09 00:32:00,76.1,72.3,29.68,SSE,158,7.8,7.8,88,0.00,,,0.00,VWS V14.01,2013-04-08 14:32:00,
2013-04-09 00:33:00,76.1,72.3,29.68,ESE,112,12.1,12.1,88,0.00,,,0.00,VWS V14.01,2013-04-08 14:33:00,
2013-04-09 00:34:00,76.1,72.3,29.68,SSE,158,6.5,12.1,88,0.00,,,0.00,VWS V14.01,2013-04-08 14:34:00,
2013-04-09 00:35:00,76.1,72.3,29.68,SW,225,6.5,6.5,88,0.00,,,0.00,VWS V14.01,2013-04-08 14:35:00,
2013-04-09 00:36:00,76.1,72.3,29.68,South,180,3.4,6.5,88,0.00,,,0.00,VWS V14.01,2013-04-08 14:36:00,
2013-04-09 00:37:00,76.1,72.3,29.68,SSE,158,2.9,3.4,88,0.00,,,0.00,VWS V14.01,2013-04-08 14:37:00,
2013-04-09 00:38:00,76.1,72.3,29.68,SW,225,2.2,2.9,88,0.00,,,0.00,VWS V14.01,2013-04-08 14:38:00,
2013-04-09 00:39:00,76.1,72.3,29.68,SW,225,2.2,2.2,88,0.00,,,0.00,VWS V14.01,2013-04-08 14:39:00,
2013-04-09 00:40:00,76.1,72.3,29.68,SSW,202,7.8,7.8,88,0.00,,,0.00,VWS V14.01,2013-04-08 14:40:00,
2013-04-09 00:41:00,76.1,71.9,29.68,SSE,158,3.1,7.8,87,0.00,,,0.00,VWS V14.01,2013-04-08 14:41:00,
2013-04-09 00:42:00,76.1,71.9,29.68,SSE,158,2.5,3.1,87,0.00,,,0.00,VWS V14.01,2013-04-08 14:42:00,
2013-04-09 00:43:00,76.3,72.1,29.68,ESE,112,3.6,4.3,87,0.00,,,0.00,VWS V14.01,2013-04-08 14:43:00,
2013-04-09 00:44:00,76.3,72.1,29.68,ENE,68,1.6,3.6,87,0.00,,,0.00,VWS V14.01,2013-04-08 14:44:00,
2013-04-09 00:45:00,76.3,72.1,29.68,ENE,68,1.1,1.6,87,0.00,,,0.00,VWS V14.01,2013-04-08 14:45:00,
2013-04-09 00:46:00,76.1,71.9,29.68,ENE,68,1.1,1.1,87,0.00,,,0.00,VWS V14.01,2013-04-08 14:46:00,
2013-04-09 00:47:00,76.1,71.9,29.68,East,90,0.0,1.3,87,0.00,,,0.00,VWS V14.01,2013-04-08 14:47:00,
2013-04-09 00:48:00,76.1,71.9,29.68,SE,135,2.7,2.7,87,0.00,,,0.00,VWS V14.01,2013-04-08 14:48:00,
2013-04-09 00:49:00,76.1,71.9,29.68,SE,135,0.0,2.7,87,0.00,,,0.00,VWS V14.01,2013-04-08 14:49:00,
2013-04-09 00:50:00,76.1,72.3,29.68,East,90,0.0,0.0,88,0.00,,,0.00,VWS V14.01,2013-04-08 14:50:00,
2013-04-09 00:51:00,76.1,72.3,29.68,SE,135,3.6,3.6,88,0.00,,,0.00,VWS V14.01,2013-04-08 14:51:00,
2013-04-09 00:52:00,76.1,72.3,29.68,SE,135,3.1,3.6,88,0.00,,,0.00,VWS V14.01,2013-04-08 14:52:00,
2013-04-09 00:53:00,76.1,72.3,29.68,SSE,158,2.2,3.1,88,0.00,,,0.00,VWS V14.01,2013-04-08 14:53:00,
2013-04-09 00:54:00,76.1,72.3,29.68,SE,135,2.7,2.7,88,0.00,,,0.00,VWS V14.01,2013-04-08 14:54:00,
2013-04-09 00:55:00,76.1,72.3,29.68,SSE,158,2.0,3.8,88,0.00,,,0.00,VWS V14.01,2013-04-08 14:55:00,
2013-04-09 00:56:00,76.1,72.3,29.68,SE,135,2.0,3.8,88,0.00,,,0.00,VWS V14.01,2013-04-08 14:56:00,
2013-04-09 00:57:00,76.1,72.3,29.68,East,90,3.1,3.1,88,0.00,,,0.00,VWS V14.01,2013-04-08 14:57:00,
2013-04-09 00:58:00,76.1,72.3,29.68,East,90,3.1,3.1,88,0.00,,,0.00,VWS V14.01,2013-04-08 14:58:00,
2013-04-09 00:59:00,76.1,72.3,29.68,SSE,158,2.2,3.1,88,0.00,,,0.00,VWS V14.01,2013-04-08 14:59:00,
2013-04-09 01:00:00,76.1,72.3,29.68,SSE,158,2.2,2.2,88,0.00,,,0.00,VWS V14.01,2013-04-08 15:00:00,
2013-04-09 01:01:00,76.1,72.3,29.68,SE,135,2.9,2.9,88,0.00,,,0.00,VWS V14.01,2013-04-08 15:01:00,
2013-04-09 01:02:00,76.3,72.5,29.68,South,180,2.9,4.0,88,0.00,,,0.00,VWS V14.01,2013-04-08 15:02:00,
2013-04-09 01:03:00,76.3,72.5,29.68,SW,225,3.6,3.6,88,0.00,,,0.00,VWS V14.01,2013-04-08 15:03:00,
2013-04-09 01:04:00,76.3,72.5,29.68,South,180,6.0,6.0,88,0.00,,,0.00,VWS V14.01,2013-04-08 15:04:00,
2013-04-09 01:05:00,76.3,72.5,29.68,SSE,158,4.3,6.0,88,0.00,,,0.00,VWS V14.01,2013-04-08 15:05:00,
2013-04-09 01:06:00,76.3,72.1,29.68,East,90,2.9,4.3,87,0.00,,,0.00,VWS V14.01,2013-04-08 15:06:00,
2013-04-09 01:07:00,76.3,72.1,29.68,ENE,68,3.4,3.4,87,0.00,,,0.00,VWS V14.01,2013-04-08 15:07:00,
2013-04-09 01:08:00,76.3,72.1,29.68,ESE,112,4.0,4.0,87,0.00,,,0.00,VWS V14.01,2013-04-08 15:08:00,
2013-04-09 01:09:00,76.3,72.1,29.68,NNE,22,2.7,4.0,87,0.00,,,0.00,VWS V14.01,2013-04-08 15:09:00,
2013-04-09 01:10:00,76.3,72.1,29.65,East,90,2.9,2.9,87,0.00,,,0.00,VWS V14.01,2013-04-08 15:10:00,
2013-04-09 01:11:00,76.3,72.1,29.65,ESE,112,0.0,2.9,87,0.00,,,0.00,VWS V14.01,2013-04-08 15:11:00,
2013-04-09 01:12:00,76.3,72.1,29.65,East,90,0.9,1.3,87,0.00,,,0.00,VWS V14.01,2013-04-08 15:12:00,
2013-04-09 01:13:00,76.3,72.1,29.65,NNE,22,3.4,3.4,87,0.00,,,0.00,VWS V14.01,2013-04-08 15:13:00,
2013-04-09 01:14:00,76.3,72.1,29.65,NNE,22,3.4,3.4,87,0.00,,,0.00,VWS V14.01,2013-04-08 15:14:00,
2013-04-09 01:15:00,76.3,72.1,29.65,East,90,1.3,3.4,87,0.00,,,0.00,VWS V14.01,2013-04-08 15:15:00,
2013-04-09 01:16:00,76.3,72.1,29.65,SSE,158,2.0,2.0,87,0.00,,,0.00,VWS V14.01,2013-04-08 15:16:00,
2013-04-09 01:17:00,76.3,72.1,29.65,South,180,3.4,3.4,87,0.00,,,0.00,VWS V14.01,2013-04-08 15:17:00,
2013-04-09 01:18:00,76.3,72.1,29.65,SSW,202,1.1,3.4,87,0.00,,,0.00,VWS V14.01,2013-04-08 15:18:00,
2013-04-09 01:19:00,76.3,72.1,29.65,South,180,0.0,1.1,87,0.00,,,0.00,VWS V14.01,2013-04-08 15:19:00,
2013-04-09 01:20:00,76.3,72.1,29.65,South,180,4.7,4.7,87,0.00,,,0.00,VWS V14.01,2013-04-08 15:20:00,
2013-04-09 01:21:00,76.3,72.1,29.65,SE,135,0.0,4.7,87,0.00,,,0.00,VWS V14.01,2013-04-08 15:21:00,
2013-04-09 01:22:00,76.1,72.3,29.65,SE,135,1.1,2.9,88,0.00,,,0.00,VWS V14.01,2013-04-08 15:22:00,
2013-04-09 01:23:00,76.1,72.3,29.65,SE,135,1.1,2.9,88,0.00,,,0.00,VWS V14.01,2013-04-08 15:23:00,
2013-04-09 01:24:00,76.1,72.3,29.65,SE,135,1.3,1.3,88,0.00,,,0.00,VWS V14.01,2013-04-08 15:24:00,
2013-04-09 01:25:00,76.1,72.3,29.65,SE,135,1.3,1.3,88,0.00,,,0.00,VWS V14.01,2013-04-08 15:25:00,
2013-04-09 01:26:00,76.1,72.3,29.65,ESE,112,2.9,3.1,88,0.00,,,0.00,VWS V14.01,2013-04-08 15:26:00,
2013-04-09 01:27:00,76.1,72.3,29.65,ESE,112,2.5,2.9,88,0.00,,,0.00,VWS V14.01,2013-04-08 15:27:00,
2013-04-09 01:28:00,76.1,72.3,29.65,ESE,112,2.5,2.5,88,0.00,,,0.00,VWS V14.01,2013-04-08 15:28:00,
2013-04-09 01:29:00,76.1,72.3,29.65,SE,135,4.3,4.3,88,0.00,,,0.00,VWS V14.01,2013-04-08 15:29:00,
2013-04-09 01:30:00,76.1,72.3,29.65,SSE,158,6.0,6.0,88,0.00,,,0.00,VWS V14.01,2013-04-08 15:30:00,
2013-04-09 01:31:00,76.1,72.3,29.65,South,180,7.8,7.8,88,0.00,,,0.00,VWS V14.01,2013-04-08 15:31:00,
2013-04-09 01:32:00,76.1,72.3,29.65,SE,135,5.4,7.8,88,0.00,,,0.00,VWS V14.01,2013-04-08 15:32:00,
2013-04-09 01:33:00,76.1,72.3,29.65,SSE,158,7.2,7.2,88,0.00,,,0.00,VWS V14.01,2013-04-08 15:33:00,
2013-04-09 01:34:00,76.1,72.3,29.65,SSW,202,9.4,9.4,88,0.00,,,0.00,VWS V14.01,2013-04-08 15:34:00,
2013-04-09 01:35:00,76.1,72.3,29.65,SE,135,5.6,9.4,88,0.00,,,0.00,VWS V14.01,2013-04-08 15:35:00,
2013-04-09 01:36:00,75.9,72.1,29.65,WNW,292,10.1,10.1,88,0.00,,,0.00,VWS V14.01,2013-04-08 15:36:00,
2013-04-09 01:37:00,75.9,72.1,29.65,South,180,6.0,10.1,88,0.00,,,0.00,VWS V14.01,2013-04-08 15:37:00,
2013-04-09 01:38:00,75.9,72.1,29.65,SSE,158,4.0,6.0,88,0.00,,,0.00,VWS V14.01,2013-04-08 15:38:00,
2013-04-09 01:39:00,75.7,71.9,29.65,SSE,158,4.0,4.0,88,0.00,,,0.00,VWS V14.01,2013-04-08 15:39:00,
2013-04-09 01:40:00,75.7,71.9,29.65,SE,135,2.7,4.9,88,0.00,,,0.00,VWS V14.01,2013-04-08 15:40:00,
2013-04-09 01:41:00,75.7,71.9,29.65,SSE,158,4.3,4.3,88,0.00,,,0.00,VWS V14.01,2013-04-08 15:41:00,
2013-04-09 01:42:00,75.7,71.9,29.65,SSE,158,6.3,6.3,88,0.00,,,0.00,VWS V14.01,2013-04-08 15:42:00,
2013-04-09 01:43:00,75.7,71.9,29.65,SW,225,5.6,6.3,88,0.00,,,0.00,VWS V14.01,2013-04-08 15:43:00,
2013-04-09 01:44:00,75.7,71.9,29.65,SSE,158,11.0,11.0,88,0.00,,,0.00,VWS V14.01,2013-04-08 15:44:00,
2013-04-09 01:45:00,75.7,71.9,29.65,SSE,158,8.5,11.0,88,0.00,,,0.00,VWS V14.01,2013-04-08 15:45:00,
2013-04-09 01:46:00,75.6,71.8,29.65,SSW,202,7.6,8.5,88,0.00,,,0.00,VWS V14.01,2013-04-08 15:46:00,
2013-04-09 01:47:00,75.6,71.8,29.65,South,180,10.5,10.5,88,0.00,,,0.00,VWS V14.01,2013-04-08 15:47:00,
2013-04-09 01:48:00,75.6,71.8,29.65,SSE,158,4.9,10.5,88,0.00,,,0.00,VWS V14.01,2013-04-08 15:48:00,
2013-04-09 01:49:00,75.6,71.8,29.65,SSW,202,6.3,6.3,88,0.00,,,0.00,VWS V14.01,2013-04-08 15:49:00,
2013-04-09 01:50:00,75.6,71.8,29.65,SSE,158,5.4,6.3,88,0.00,,,0.00,VWS V14.01,2013-04-08 15:50:00,
2013-04-09 01:51:00,75.6,71.8,29.65,SSW,202,3.1,5.4,88,0.00,,,0.00,VWS V14.01,2013-04-08 15:51:00,
2013-04-09 01:52:00,75.4,71.6,29.65,SSE,158,7.2,7.2,88,0.00,,,0.00,VWS V14.01,2013-04-08 15:52:00,
2013-04-09 01:53:00,75.6,71.8,29.65,SSE,158,7.2,7.2,88,0.00,,,0.00,VWS V14.01,2013-04-08 15:53:00,
2013-04-09 01:54:00,75.6,71.8,29.65,SE,135,3.1,7.2,88,0.00,,,0.00,VWS V14.01,2013-04-08 15:54:00,
2013-04-09 01:55:00,75.6,72.1,29.65,SSE,158,2.7,3.1,89,0.00,,,0.00,VWS V14.01,2013-04-08 15:55:00,
2013-04-09 01:56:00,75.6,72.1,29.65,East,90,2.2,2.7,89,0.00,,,0.00,VWS V14.01,2013-04-08 15:56:00,
2013-04-09 01:57:00,75.6,72.1,29.65,SSE,158,2.9,2.9,89,0.00,,,0.00,VWS V14.01,2013-04-08 15:57:00,
2013-04-09 01:58:00,75.6,72.1,29.65,SSE,158,2.9,2.9,89,0.00,,,0.00,VWS V14.01,2013-04-08 15:58:00,